Time;durP1;ratioP1;P1;durP2;ratioP2;P2;SDS_P1;SDS_P2;PMS_P1;PMS_P2;Temp;Humidity;BMP_temperature;BMP_pressure;BME280_temperature;BME280_humidity;BME280_pressure;Samples;Min_cycle;Max_cycle;Signal;HPM_P1;HPM_P2
2021/06/03 00:02:15;;;;;;;28.58;10.40;;;;;;;29.80;56.11;100826.41;5077750;27;70118;-36
2021/06/03 00:04:47;;;;;;;12.30;9.10;;;;;;;29.83;56.61;100826.81;5076857;28;66323;-36
2021/06/03 00:07:19;;;;;;;;;;;;;;;29.71;57.41;100833.13;5076493;27;69917;-37
2021/06/03 00:09:51;;;;;;;;;;;;;;;29.73;57.55;100847.25;5073705;28;66514;-36
2021/06/03 00:12:22;;;;;;;13.68;8.88;;;;;;;29.97;56.90;100840.28;5070258;27;68728;-37
2021/06/03 00:14:53;;;;;;;24.70;9.60;;;;;;;30.01;57.31;100838.81;5067524;28;66078;-35
2021/06/03 00:17:24;;;;;;;27.15;9.10;;;;;;;30.03;56.62;100836.72;5068411;28;69044;-36
2021/06/03 00:19:56;;;;;;;29.98;9.18;;;;;;;30.09;57.65;100851.25;5071116;28;65842;-35
2021/06/03 00:22:27;;;;;;;25.45;9.60;;;;;;;30.01;57.79;100830.72;5069340;28;69466;-36
2021/06/03 00:24:59;;;;;;;16.73;11.23;;;;;;;30.16;59.50;100858.28;5062888;28;66692;-37
2021/06/03 00:27:31;;;;;;;13.23;11.85;;;;;;;30.23;60.58;100864.53;5071065;28;69288;-35
2021/06/03 00:30:07;;;;;;;19.38;13.77;;;;;;;30.27;61.58;100870.34;5078105;27;65616;-36
2021/06/03 00:32:39;;;;;;;26.05;13.80;;;;;;;30.36;61.76;100879.03;5072902;28;69104;-35
2021/06/03 00:35:11;;;;;;;29.17;19.65;;;;;;;30.41;64.58;100887.34;5068059;27;65930;-36
2021/06/03 00:37:43;;;;;;;23.77;21.23;;;;;;;30.36;65.00;100860.91;5065448;28;69098;-36
2021/06/03 00:40:17;;;;;;;27.90;21.48;;;;;;;30.16;66.18;100809.59;5062941;27;65761;-35
2021/06/03 00:42:49;;;;;;;25.80;21.40;;;;;;;30.55;65.87;100867.25;5063775;27;68437;-36
2021/06/03 00:45:29;;;;;;;27.38;21.88;;;;;;;30.62;65.78;100889.72;5066361;27;65119;-36
2021/06/03 00:48:02;;;;;;;27.77;22.67;;;;;;;30.66;66.84;100880.09;5065413;28;69897;-36
2021/06/03 00:50:35;;;;;;;;;;;;;;;30.49;68.25;100873.53;5065979;28;65199;-36
2021/06/03 00:53:09;;;;;;;33.00;23.17;;;;;;;30.39;67.06;100819.88;5070778;28;69828;-35
2021/06/03 00:55:45;;;;;;;29.15;23.35;;;;;;;30.55;67.07;100823.94;5068152;28;66924;-35
2021/06/03 00:58:23;;;;;;;33.80;24.40;;;;;;;30.59;66.89;100825.19;5061937;28;68933;-35
2021/06/03 01:00:57;;;;;;;29.85;22.95;;;;;;;30.44;67.18;100800.28;5069925;27;66029;-36
2021/06/03 01:03:31;;;;;;;24.90;22.23;;;;;;;30.92;67.29;100867.41;5067092;28;70696;-36
2021/06/03 01:06:10;;;;;;;24.67;22.00;;;;;;;30.59;67.38;100813.50;5064677;27;65977;-36
2021/06/03 01:09:18;;;;;;;37.38;22.92;;;;;;;30.90;69.08;100870.38;5071079;28;69083;-36
2021/06/03 01:12:12;;;;;;;24.85;20.95;;;;;;;30.99;68.23;100873.63;5059216;28;65539;-36
2021/06/03 01:14:50;;;;;;;27.92;21.15;;;;;;;31.09;66.94;100879.38;5066313;27;70499;-37
2021/06/03 01:17:24;;;;;;;31.45;21.50;;;;;;;31.12;67.26;100876.22;5064071;28;65977;-36
2021/06/03 01:19:57;;;;;;;26.95;20.90;;;;;;;31.10;66.74;100864.78;5077849;27;70216;-35
2021/06/03 01:22:44;;;;;;;33.60;20.83;;;;;;;31.23;67.29;100879.25;5068659;27;65180;-36
2021/06/03 01:25:18;;;;;;;28.70;19.95;;;;;;;31.30;67.24;100885.44;5071074;28;69997;-34
2021/06/03 01:27:53;;;;;;;26.17;20.10;;;;;;;31.36;66.35;100884.56;5070942;28;65910;-36
2021/06/03 01:30:38;;;;;;;26.40;19.67;;;;;;;31.33;66.37;100879.56;5073424;28;70714;-36
2021/06/03 01:33:14;;;;;;;23.67;18.42;;;;;;;31.17;66.70;100846.59;5071740;28;65384;-36
2021/06/03 01:35:53;;;;;;;23.52;15.77;;;;;;;31.52;66.08;100894.00;5065261;28;70388;-34
2021/06/03 01:38:36;;;;;;;24.73;16.90;;;;;;;31.20;66.73;100841.75;5069504;27;65614;-36
2021/06/03 01:41:11;;;;;;;46.85;17.27;;;;;;;31.08;64.36;100838.94;5074900;27;69807;-35
2021/06/03 01:43:47;;;;;;;18.67;15.70;;;;;;;31.34;61.69;100881.22;5075406;28;66077;-35
2021/06/03 01:46:22;;;;;;;17.83;14.63;;;;;;;31.00;60.01;100842.75;5062536;28;69065;-35
2021/06/03 01:48:56;;;;;;;22.40;14.68;;;;;;;31.15;58.25;100899.34;5071836;28;65882;-34
2021/06/03 01:51:30;;;;;;;17.75;14.07;;;;;;;31.02;57.24;100900.28;5092005;27;69394;-34
2021/06/03 01:54:03;;;;;;;19.27;13.13;;;;;;;30.88;56.08;100904.13;5070735;28;65702;-35
2021/06/03 01:56:37;;;;;;;14.27;12.20;;;;;;;30.54;54.51;100862.91;5074919;27;69896;-35
2021/06/03 01:59:10;;;;;;;17.13;11.50;;;;;;;30.67;54.34;100898.00;5075889;27;65434;-36
2021/06/03 02:01:42;;;;;;;16.85;11.32;;;;;;;30.55;53.55;100899.75;5076730;28;70146;-35
2021/06/03 02:04:16;;;;;;;19.80;11.02;;;;;;;30.46;52.50;100895.63;5075222;27;65905;-35
2021/06/03 02:06:48;;;;;;;17.67;11.13;;;;;;;30.37;51.89;100892.34;5075883;27;68871;-35
2021/06/03 02:09:25;;;;;;;16.33;10.68;;;;;;;30.28;50.55;100894.50;5054239;28;65353;-36
2021/06/03 02:12:00;;;;;;;11.43;10.32;;;;;;;30.11;51.64;100871.63;5067474;28;70442;-35
2021/06/03 02:14:40;;;;;;;11.45;10.00;;;;;;;30.20;52.06;100897.41;5066762;28;66536;-35
2021/06/03 02:17:23;;;;;;;13.20;9.98;;;;;;;30.15;51.15;100894.50;5068457;28;70712;-35
2021/06/03 02:20:09;;;;;;;11.90;9.75;;;;;;;30.10;50.52;100894.31;5049350;28;66333;-36
2021/06/03 02:22:56;;;;;;;12.88;9.48;;;;;;;30.07;50.42;100892.06;5067038;27;70066;-38
2021/06/03 02:25:30;;;;;;;17.80;8.77;;;;;;;30.03;49.76;100890.81;5052236;28;65359;-38
2021/06/03 02:28:07;;;;;;;25.63;8.93;;;;;;;30.00;48.59;100893.94;5068352;27;70217;-36
2021/06/03 02:30:41;;;;;;;11.13;9.02;;;;;;;29.96;48.28;100890.84;5068926;28;65303;-35
2021/06/03 02:33:18;;;;;;;15.50;8.32;;;;;;;29.92;48.24;100886.06;5069183;28;71010;-35
2021/06/03 02:35:50;;;;;;;11.43;8.27;;;;;;;29.90;48.85;100897.13;5060001;27;65744;-35
2021/06/03 02:38:28;;;;;;;18.77;8.07;;;;;;;29.86;47.92;100876.09;5071930;27;70195;-35
2021/06/03 02:41:05;;;;;;;22.58;8.38;;;;;;;29.54;47.84;100832.72;5074005;27;66119;-35
2021/06/03 02:43:44;;;;;;;9.02;8.20;;;;;;;29.59;46.99;100835.63;5071625;28;69941;-36
2021/06/03 02:46:22;;;;;;;9.60;8.00;;;;;;;29.85;46.90;100878.00;5067438;28;65686;-35
2021/06/03 02:48:59;;;;;;;23.42;7.65;;;;;;;29.88;47.70;100892.97;5066380;27;70450;-35
2021/06/03 02:51:32;;;;;;;33.33;8.38;;;;;;;29.85;46.54;100883.41;5068006;28;66902;-35
2021/06/03 02:54:05;;;;;;;22.77;7.32;;;;;;;29.78;45.73;100883.44;5077614;28;69925;-35
2021/06/03 02:56:43;;;;;;;14.45;8.13;;;;;;;29.66;46.79;100868.88;5075071;27;65328;-34
2021/06/03 02:59:16;;;;;;;8.40;7.80;;;;;;;29.77;49.82;100892.56;5089272;27;68933;-35
2021/06/03 03:01:47;;;;;;;11.38;8.23;;;;;;;29.81;53.88;100883.00;5078572;28;65193;-35
2021/06/03 03:04:20;;;;;;;9.43;8.65;;;;;;;29.90;55.62;100874.66;5075056;27;69866;-34
2021/06/03 03:06:52;;;;;;;8.40;7.70;;;;;;;29.95;53.74;100869.41;5079305;28;66058;-34
2021/06/03 03:09:24;;;;;;;12.07;7.25;;;;;;;29.60;52.39;100807.53;5072413;27;70629;-35
2021/06/03 03:11:57;;;;;;;8.00;7.35;;;;;;;29.94;51.41;100865.06;5076462;28;66283;-34
2021/06/03 03:14:31;;;;;;;9.02;8.07;;;;;;;29.89;49.94;100867.56;5072699;28;69327;-35
2021/06/03 03:17:06;;;;;;;8.80;7.03;;;;;;;29.91;49.26;100863.59;5075059;28;66241;-35
2021/06/03 03:19:38;;;;;;;9.85;7.15;;;;;;;29.78;47.70;100855.53;5073763;28;69776;-34
2021/06/03 03:22:09;;;;;;;;;;;;;;;29.60;48.27;100870.53;5071578;28;66005;-35
2021/06/03 03:24:41;;;;;;;18.25;7.13;;;;;;;29.71;48.30;100855.56;5076962;28;69165;-36
2021/06/03 03:27:14;;;;;;;13.20;7.20;;;;;;;29.78;47.57;100872.63;5070545;27;65688;-34
2021/06/03 03:29:45;;;;;;;24.35;7.15;;;;;;;29.68;46.76;100850.59;5065255;28;69768;-35
2021/06/03 03:32:18;;;;;;;18.35;6.90;;;;;;;29.68;47.14;100850.59;5077803;28;66002;-34
2021/06/03 03:34:50;;;;;;;20.02;7.20;;;;;;;29.72;46.92;100850.97;5068816;27;70492;-36
2021/06/03 03:37:22;;;;;;;;;;;;;;;29.54;46.59;100860.56;5070799;28;66200;-35
2021/06/03 03:39:55;;;;;;;36.90;7.03;;;;;;;29.75;46.89;100845.97;5086437;27;69266;-35
2021/06/03 03:42:28;;;;;;;32.35;7.47;;;;;;;29.69;46.35;100819.81;5066577;27;66151;-34
2021/06/03 03:45:00;;;;;;;15.15;7.07;;;;;;;29.77;46.33;100835.78;5070570;27;69951;-36
2021/06/03 03:47:31;;;;;;;24.83;6.87;;;;;;;29.76;45.32;100841.41;5066832;28;65832;-35
2021/06/03 03:50:05;;;;;;;31.80;6.65;;;;;;;29.76;46.46;100836.84;5067387;28;70080;-34
2021/06/03 03:52:41;;;;;;;16.67;7.05;;;;;;;29.78;46.39;100829.34;5073204;27;66101;-35
2021/06/03 03:55:15;;;;;;;18.70;6.63;;;;;;;29.82;46.48;100830.56;5076558;27;70098;-35
2021/06/03 03:57:48;;;;;;;26.02;6.45;;;;;;;29.70;46.20;100794.44;5067541;27;66276;-34
2021/06/03 04:00:27;;;;;;;10.73;5.95;;;;;;;29.88;45.43;100818.06;5072040;28;69079;-34
2021/06/03 04:03:06;;;;;;;10.52;5.53;;;;;;;29.77;44.96;100803.34;5067968;27;66142;-35
2021/06/03 04:05:39;;;;;;;17.10;6.32;;;;;;;29.83;45.25;100810.59;5072439;28;69702;-35
2021/06/03 04:08:14;;;;;;;17.98;6.00;;;;;;;29.82;44.63;100803.53;5074594;27;65409;-36
2021/06/03 04:10:48;;;;;;;14.20;5.55;;;;;;;29.86;44.83;100803.09;5076613;28;69887;-34
2021/06/03 04:13:23;;;;;;;18.17;6.28;;;;;;;29.58;44.92;100758.25;5074464;28;66047;-34
2021/06/03 04:16:01;;;;;;;23.00;6.20;;;;;;;29.89;45.65;100797.25;5064439;27;70186;-35
2021/06/03 04:18:34;;;;;;;14.20;5.75;;;;;;;29.91;45.05;100806.00;5071819;27;66070;-34
2021/06/03 04:21:08;;;;;;;10.57;5.53;;;;;;;29.94;44.82;100805.56;5066660;28;69104;-36
2021/06/03 04:23:45;;;;;;;16.00;5.70;;;;;;;29.91;44.04;100800.56;5090257;27;66354;-35
2021/06/03 04:26:17;;;;;;;14.68;6.38;;;;;;;29.92;43.54;100796.81;5068497;28;68454;-35
2021/06/03 04:28:49;;;;;;;17.15;5.03;;;;;;;29.90;42.89;100794.34;5067891;27;66796;-35
2021/06/03 04:31:20;;;;;;;13.77;4.95;;;;;;;29.88;42.47;100779.38;5072979;27;69049;-35
2021/06/03 04:33:52;;;;;;;9.53;4.87;;;;;;;29.78;42.73;100763.59;5071835;28;65561;-34
2021/06/03 04:36:24;;;;;;;12.73;5.40;;;;;;;29.87;41.65;100777.72;5064166;28;72292;-35
2021/06/03 04:38:56;;;;;;;9.68;4.95;;;;;;;29.78;41.95;100764.47;5074760;28;66186;-35
2021/06/03 04:41:28;;;;;;;8.10;5.10;;;;;;;29.82;42.51;100776.50;5072184;27;70760;-35
2021/06/03 04:43:59;;;;;;;6.18;4.90;;;;;;;29.81;42.25;100769.44;5066508;28;65976;-35
2021/06/03 04:46:33;;;;;;;8.50;5.03;;;;;;;29.78;41.63;100752.78;5068379;27;71403;-34
2021/06/03 04:49:04;;;;;;;;;;;;;;;29.59;41.37;100763.47;5071912;27;66247;-34
2021/06/03 04:51:48;;;;;;;5.07;4.78;;;;;;;29.85;42.14;100759.00;5073024;28;70241;-33
2021/06/03 04:54:21;;;;;;;9.18;4.32;;;;;;;29.91;41.53;100757.31;5075524;27;65777;-34
2021/06/03 04:56:54;;;;;;;5.78;4.22;;;;;;;29.92;41.64;100759.81;5075006;28;70327;-33
2021/06/03 04:59:25;;;;;;;5.15;4.65;;;;;;;29.92;40.63;100753.56;5065214;27;66870;-34
2021/06/03 05:01:56;;;;;;;5.30;4.03;;;;;;;29.84;41.17;100747.38;5070598;27;69569;-34
2021/06/03 05:04:28;;;;;;;7.45;4.20;;;;;;;29.90;41.28;100744.84;5074402;27;66184;-34
2021/06/03 05:07:02;;;;;;;4.80;4.40;;;;;;;29.93;41.78;100733.59;5071048;27;69824;-34
2021/06/03 05:09:35;;;;;;;4.97;4.18;;;;;;;29.95;41.20;100731.47;5072835;28;66147;-35
2021/06/03 05:12:09;;;;;;;5.13;4.55;;;;;;;29.90;40.78;100712.41;5072440;27;69838;-35
2021/06/03 05:14:40;;;;;;;5.07;4.40;;;;;;;29.96;41.25;100727.75;5072964;27;66275;-35
2021/06/03 05:17:14;;;;;;;6.13;4.55;;;;;;;29.97;40.78;100719.41;5071216;28;70139;-33
2021/06/03 05:19:48;;;;;;;9.23;3.88;;;;;;;30.00;40.77;100715.44;5065842;28;66263;-33
2021/06/03 05:22:21;;;;;;;5.20;4.20;;;;;;;30.01;40.23;100727.94;5074479;28;69137;-33
2021/06/03 05:25:07;;;;;;;4.90;4.40;;;;;;;29.99;40.68;100719.19;5071951;27;66375;-34
2021/06/03 05:27:39;;;;;;;4.57;4.22;;;;;;;30.01;41.04;100722.50;5065418;28;70424;-33
2021/06/03 05:30:17;;;;;;;4.82;3.90;;;;;;;30.03;40.56;100718.56;5072670;27;66215;-34
2021/06/03 05:32:48;;;;;;;4.82;4.30;;;;;;;30.01;40.17;100715.22;5073640;27;70125;-34
2021/06/03 05:35:24;;;;;;;4.43;4.10;;;;;;;30.03;39.65;100713.13;5076187;28;65238;-34
2021/06/03 05:37:56;;;;;;;4.18;3.88;;;;;;;30.04;40.03;100703.16;5073458;27;69995;-35
2021/06/03 05:40:30;;;;;;;4.47;4.07;;;;;;;30.07;39.43;100708.13;5063717;28;66701;-34
2021/06/03 05:43:06;;;;;;;6.40;3.63;;;;;;;30.04;39.95;100686.91;5076108;27;70023;-35
2021/06/03 05:45:40;;;;;;;4.20;3.92;;;;;;;30.08;39.75;100693.53;5068040;28;64982;-33
2021/06/03 05:48:15;;;;;;;5.03;3.58;;;;;;;30.08;39.00;100688.13;5068933;28;69803;-33
2021/06/03 05:50:50;;;;;;;3.65;3.40;;;;;;;30.06;39.52;100693.75;5072297;27;65407;-33
2021/06/03 05:53:27;;;;;;;7.68;3.80;;;;;;;30.04;39.18;100686.91;5071656;27;69937;-33
2021/06/03 05:56:05;;;;;;;6.15;3.88;;;;;;;29.77;39.00;100641.13;5073328;27;66211;-33
2021/06/03 05:58:44;;;;;;;3.72;3.53;;;;;;;30.09;39.74;100684.38;5072817;28;70355;-33
2021/06/03 06:01:19;;;;;;;3.85;3.65;;;;;;;30.11;38.98;100676.03;5075140;27;66113;-33
2021/06/03 06:04:11;;;;;;;5.10;3.70;;;;;;;30.12;39.02;100673.13;5070632;28;69891;-33
2021/06/03 06:06:42;;;;;;;3.72;3.53;;;;;;;30.14;38.66;100676.41;5064508;27;65967;-33
2021/06/03 06:09:17;;;;;;;3.53;3.22;;;;;;;30.10;38.45;100663.56;5066170;27;69232;-33
2021/06/03 06:11:48;;;;;;;;;;;;;;;29.97;38.14;100672.59;5070455;28;65217;-34
2021/06/03 06:14:23;;;;;;;3.47;3.28;;;;;;;30.11;38.57;100638.16;5073165;28;69670;-34
2021/06/03 06:16:55;;;;;;;3.88;3.47;;;;;;;30.28;39.07;100655.50;5075380;28;66005;-36
2021/06/03 06:19:30;;;;;;;3.60;3.30;;;;;;;30.21;38.33;100628.50;5070764;27;70688;-32
2021/06/03 06:22:05;;;;;;;3.75;3.40;;;;;;;30.36;38.38;100635.47;5066459;27;65385;-34
2021/06/03 06:24:37;;;;;;;3.47;3.27;;;;;;;30.41;38.12;100635.63;5073605;27;70107;-33
2021/06/03 06:27:10;;;;;;;3.17;2.97;;;;;;;30.44;38.47;100632.47;5070425;28;65991;-34
2021/06/03 06:29:42;;;;;;;3.42;3.22;;;;;;;30.45;38.71;100628.72;5076713;27;69901;-33
2021/06/03 06:32:13;;;;;;;3.10;2.90;;;;;;;30.51;38.00;100622.44;5077364;27;65819;-35
2021/06/03 06:34:45;;;;;;;3.20;3.00;;;;;;;30.54;37.97;100610.34;5075866;27;69965;-36
2021/06/03 06:37:16;;;;;;;2.85;2.65;;;;;;;30.47;38.24;100594.13;5071861;27;66859;-34
2021/06/03 06:39:47;;;;;;;3.63;3.15;;;;;;;30.55;37.50;100601.97;5070454;28;70096;-34
2021/06/03 06:42:19;;;;;;;3.63;3.30;;;;;;;30.58;37.65;100595.28;5069925;28;65820;-34
2021/06/03 06:44:50;;;;;;;3.38;3.13;;;;;;;30.56;37.92;100591.97;5072607;28;69124;-34
2021/06/03 06:47:21;;;;;;;3.20;3.00;;;;;;;30.59;37.50;100588.81;5067527;28;66247;-34
2021/06/03 06:49:52;;;;;;;3.60;2.80;;;;;;;30.54;37.42;100577.84;5068906;28;69277;-34
2021/06/03 06:52:24;;;;;;;3.00;2.83;;;;;;;30.60;37.70;100588.59;5068065;27;64956;-34
2021/06/03 06:54:55;;;;;;;3.47;3.17;;;;;;;30.58;37.26;100574.44;5068235;28;69296;-34
2021/06/03 06:57:26;;;;;;;3.78;3.47;;;;;;;30.56;37.46;100554.88;5070706;27;65139;-34
2021/06/03 06:59:58;;;;;;;3.17;2.90;;;;;;;30.57;38.01;100553.84;5068329;28;70440;-33
2021/06/03 07:02:29;;;;;;;11.73;3.38;;;;;;;30.64;38.10;100549.16;5074119;28;65407;-33
2021/06/03 07:05:01;;;;;;;;;;;;;;;30.43;37.78;100545.06;5071809;28;70814;-34
2021/06/03 07:07:32;;;;;;;7.45;3.13;;;;;;;30.65;37.99;100542.72;5071729;28;67153;-34
2021/06/03 07:10:07;;;;;;;11.25;3.20;;;;;;;30.30;38.12;100479.44;5066915;28;69672;-32
2021/06/03 07:12:39;;;;;;;10.45;3.10;;;;;;;30.32;37.91;100475.44;5067457;27;65218;-33
2021/06/03 07:15:13;;;;;;;9.52;3.20;;;;;;;30.07;38.58;100429.50;5071922;28;69680;-34
2021/06/03 07:17:45;;;;;;;8.70;3.30;;;;;;;30.68;38.15;100515.19;5072607;27;66257;-34
2021/06/03 07:20:19;;;;;;;15.40;3.03;;;;;;;30.74;37.88;100527.00;5068394;27;69835;-33
2021/06/03 07:22:53;;;;;;;6.45;3.38;;;;;;;30.76;38.19;100510.50;5066958;28;65101;-34
2021/06/03 07:25:26;;;;;;;13.77;3.67;;;;;;;30.86;38.52;100506.22;5064219;28;71095;-33
2021/06/03 07:27:57;;;;;;;12.70;3.33;;;;;;;30.88;38.34;100492.47;5065347;27;65174;-34
2021/06/03 07:30:29;;;;;;;12.35;2.95;;;;;;;30.90;38.42;100498.50;5062355;28;70503;-34
2021/06/03 07:33:01;;;;;;;14.32;4.00;;;;;;;30.98;43.15;100497.31;5066972;27;66021;-35
2021/06/03 07:35:35;;;;;;;4.78;4.00;;;;;;;31.06;43.82;100489.69;5072395;28;69385;-35
2021/06/03 07:38:06;;;;;;;4.00;3.70;;;;;;;31.06;43.05;100473.44;5074564;27;65980;-35
2021/06/03 07:40:40;;;;;;;5.33;3.80;;;;;;;30.76;41.96;100421.16;5073059;27;69031;-34
2021/06/03 07:43:13;;;;;;;6.97;3.70;;;;;;;30.88;41.26;100439.13;5047060;28;65333;-34
2021/06/03 07:45:46;;;;;;;20.77;3.45;;;;;;;31.12;40.74;100472.53;5076693;27;69828;-34
2021/06/03 07:48:18;;;;;;;9.90;3.75;;;;;;;31.13;41.04;100463.34;5088726;27;65926;-34
2021/06/03 07:50:50;;;;;;;12.50;3.53;;;;;;;31.14;40.32;100459.56;5068718;27;70211;-34
2021/06/03 07:53:22;;;;;;;21.50;3.55;;;;;;;31.16;40.53;100459.34;5065873;28;65175;-35
2021/06/03 07:55:54;;;;;;;14.45;3.53;;;;;;;31.06;41.19;100440.09;5066807;28;69966;-36
2021/06/03 07:58:26;;;;;;;7.60;3.72;;;;;;;31.16;41.09;100453.91;5067152;27;65469;-35
2021/06/03 08:00:58;;;;;;;14.45;3.33;;;;;;;31.18;41.93;100454.53;5069773;28;70122;-35
2021/06/03 08:03:29;;;;;;;14.52;3.50;;;;;;;31.20;41.65;100455.09;5065927;28;64989;-34
2021/06/03 08:06:01;;;;;;;10.30;3.50;;;;;;;31.13;41.57;100443.56;5062199;27;70372;-34
2021/06/03 08:08:36;;;;;;;6.77;4.00;;;;;;;31.17;40.95;100452.84;5070766;28;65207;-34
2021/06/03 08:11:08;;;;;;;6.68;3.42;;;;;;;31.16;40.93;100449.31;5073576;28;70091;-34
2021/06/03 08:13:40;;;;;;;;;;;;;;;30.90;41.36;100444.31;5071937;28;66183;-35
2021/06/03 08:16:11;;;;;;;9.48;3.33;;;;;;;31.13;40.59;100441.66;5073367;27;69709;-35
2021/06/03 08:18:42;;;;;;;6.97;3.10;;;;;;;31.06;40.25;100423.84;5075244;27;65297;-35
2021/06/03 08:21:13;;;;;;;11.93;3.10;;;;;;;31.08;40.10;100422.56;5072050;27;69743;-33
2021/06/03 08:23:44;;;;;;;3.15;2.95;;;;;;;30.82;40.13;100390.50;5072194;27;65320;-34
2021/06/03 08:26:16;;;;;;;4.55;3.10;;;;;;;31.09;40.15;100436.94;5068487;27;69820;-33
2021/06/03 08:28:48;;;;;;;4.72;3.72;;;;;;;31.06;39.39;100431.97;5072069;27;66129;-34
2021/06/03 08:31:19;;;;;;;5.22;3.33;;;;;;;31.02;39.43;100428.09;5074651;27;69793;-34
2021/06/03 08:33:52;;;;;;;5.22;3.50;;;;;;;31.00;39.52;100420.19;5070562;27;66653;-35
2021/06/03 08:36:25;;;;;;;3.38;3.08;;;;;;;31.00;39.33;100433.72;5074806;28;69470;-35
2021/06/03 08:38:57;;;;;;;7.97;3.70;;;;;;;31.11;46.98;100432.94;5070062;28;66099;-34
2021/06/03 08:41:31;;;;;;;4.13;3.75;;;;;;;31.36;51.35;100438.19;5073091;27;69248;-35
2021/06/03 08:44:06;;;;;;;5.53;5.03;;;;;;;31.28;53.64;100378.88;5077251;27;66183;-35
2021/06/03 08:46:39;;;;;;;8.15;4.50;;;;;;;31.85;53.13;100434.44;5071669;28;70237;-35
2021/06/03 08:49:11;;;;;;;5.05;4.65;;;;;;;32.04;53.55;100425.94;5073228;27;65960;-35
2021/06/03 08:51:52;;;;;;;5.00;4.60;;;;;;;31.63;54.55;100320.34;5066881;27;69544;-35
2021/06/03 08:54:24;;;;;;;5.03;4.70;;;;;;;32.41;54.29;100420.16;5073827;28;66740;-35
2021/06/03 08:56:56;;;;;;;6.15;4.78;;;;;;;32.56;54.59;100410.69;5089379;27;70467;-35
2021/06/03 08:59:27;;;;;;;6.50;4.75;;;;;;;32.67;54.61;100417.94;5063623;28;67072;-34
2021/06/03 09:01:59;;;;;;;14.52;4.90;;;;;;;32.82;55.23;100426.38;5074745;28;69903;-35
2021/06/03 09:04:30;;;;;;;8.25;4.97;;;;;;;32.90;54.99;100426.00;5068416;28;65747;-34
2021/06/03 09:07:03;;;;;;;5.07;4.53;;;;;;;33.06;54.66;100428.97;5067518;28;69295;-33
2021/06/03 09:09:36;;;;;;;5.05;4.65;;;;;;;33.16;55.26;100429.16;5071899;28;66460;-34
2021/06/03 09:12:14;;;;;;;7.97;5.35;;;;;;;33.26;56.24;100440.19;5075748;27;70655;-33
2021/06/03 09:15:15;;;;;;;5.05;4.53;;;;;;;33.06;56.54;100401.81;5071080;27;65978;-34
2021/06/03 09:17:50;;;;;;;6.57;5.03;;;;;;;33.43;55.67;100448.34;5073720;28;69718;-34
2021/06/03 09:20:25;;;;;;;8.35;4.32;;;;;;;33.48;55.28;100462.00;5069036;28;66212;-34
2021/06/03 09:22:56;;;;;;;8.77;4.95;;;;;;;33.47;55.66;100456.84;5071892;28;69730;-34
2021/06/03 09:25:36;;;;;;;5.55;4.28;;;;;;;33.62;55.87;100464.44;5074010;28;65462;-34
2021/06/03 09:28:21;;;;;;;5.57;5.18;;;;;;;33.51;57.76;100449.81;5073527;27;69089;-35
2021/06/03 09:31:04;;;;;;;6.05;4.63;;;;;;;33.65;57.69;100467.47;5073464;27;65941;-35
2021/06/03 09:33:44;;;;;;;5.82;5.03;;;;;;;33.32;57.82;100420.19;5069204;28;68999;-35
2021/06/03 09:36:29;;;;;;;6.07;5.53;;;;;;;33.61;57.57;100466.34;5061902;28;66257;-34
2021/06/03 09:39:19;;;;;;;4.90;4.50;;;;;;;33.28;59.04;100424.47;5071805;27;69941;-34
2021/06/03 09:41:58;;;;;;;6.50;5.35;;;;;;;33.61;58.68;100471.78;5077604;28;66790;-35
2021/06/03 09:44:49;;;;;;;6.50;5.35;;;;;;;33.55;59.58;100472.78;5074203;28;70108;-35
2021/06/03 09:47:41;;;;;;;5.25;4.80;;;;;;;33.30;58.97;100425.03;5064655;28;65435;-33
2021/06/03 09:50:13;;;;;;;8.05;5.15;;;;;;;33.60;58.80;100481.00;5076658;27;69969;-35
2021/06/03 09:52:45;;;;;;;7.15;5.13;;;;;;;33.32;58.94;100443.81;5058241;27;66009;-34
2021/06/03 09:55:16;;;;;;;5.25;4.80;;;;;;;33.63;58.40;100494.09;5069628;28;69113;-37
2021/06/03 09:57:55;;;;;;;5.27;4.90;;;;;;;33.60;59.76;100497.34;5074606;27;64876;-33
2021/06/03 10:00:30;;;;;;;6.90;5.15;;;;;;;33.62;58.77;100516.91;5072539;27;69215;-33
2021/06/03 10:03:01;;;;;;;5.47;5.07;;;;;;;33.63;59.31;100513.16;5073773;27;65271;-35
2021/06/03 10:05:33;;;;;;;6.30;5.90;;;;;;;33.43;59.77;100486.41;5073338;27;69806;-35
2021/06/03 10:08:05;;;;;;;8.00;5.72;;;;;;;33.66;59.74;100523.53;5071184;27;66209;-34
2021/06/03 10:10:39;;;;;;;;;;;;;;;33.43;60.95;100531.81;5068200;27;69952;-35
2021/06/03 10:13:11;;;;;;;6.47;5.88;;;;;;;33.56;60.48;100531.50;5074252;28;66211;-35
2021/06/03 10:15:45;;;;;;;9.55;5.53;;;;;;;33.29;59.97;100482.38;5074352;28;68957;-34
2021/06/03 10:18:19;;;;;;;9.48;5.65;;;;;;;33.35;60.52;100495.81;5070428;27;66416;-35
2021/06/03 10:20:54;;;;;;;7.90;5.95;;;;;;;33.73;60.49;100550.56;5066853;28;70335;-35
2021/06/03 10:23:28;;;;;;;19.55;6.05;;;;;;;33.38;60.97;100498.03;5065996;28;66026;-34
2021/06/03 10:26:05;;;;;;;7.45;5.72;;;;;;;33.72;61.28;100555.19;5070974;28;69946;-34
2021/06/03 10:28:38;;;;;;;7.90;5.55;;;;;;;33.71;60.69;100558.97;5066862;27;65099;-35
2021/06/03 10:31:13;;;;;;;6.00;5.60;;;;;;;33.65;61.58;100543.63;5062868;28;70323;-35
2021/06/03 10:33:45;;;;;;;13.15;6.53;;;;;;;33.71;61.40;100558.97;5070081;27;65307;-34
2021/06/03 10:36:16;;;;;;;8.35;5.90;;;;;;;33.71;61.39;100561.69;5067139;28;70083;-36
2021/06/03 10:38:48;;;;;;;9.00;5.80;;;;;;;33.74;60.75;100557.63;5070369;27;65929;-36
2021/06/03 10:41:19;;;;;;;7.50;6.82;;;;;;;33.73;60.77;100564.97;5065036;28;70527;-37
2021/06/03 10:43:50;;;;;;;;;;;;;;;33.54;61.16;100563.56;5067115;28;65034;-36
2021/06/03 10:46:22;;;;;;;8.63;6.50;;;;;;;33.74;60.50;100568.50;5067452;28;70574;-37
2021/06/03 10:48:54;;;;;;;7.10;6.40;;;;;;;33.69;60.55;100566.56;5067832;27;66657;-36
2021/06/03 10:51:25;;;;;;;6.90;5.97;;;;;;;33.73;60.15;100567.69;5071152;28;69862;-36
2021/06/03 10:53:57;;;;;;;12.18;6.78;;;;;;;33.78;60.07;100570.50;5071138;27;65331;-37
2021/06/03 10:56:29;;;;;;;6.65;6.22;;;;;;;33.73;60.03;100572.31;5070399;27;69473;-35
2021/06/03 10:59:03;;;;;;;;;;;;;;;33.23;60.37;100546.69;5072244;27;67535;-39
2021/06/03 11:01:56;;;;;;;7.22;6.20;;;;;;;33.05;60.78;100484.41;5070982;28;69613;-36
2021/06/03 11:04:30;;;;;;;7.10;6.60;;;;;;;33.49;59.64;100536.25;5068933;27;65233;-36
2021/06/03 11:07:01;;;;;;;11.25;6.90;;;;;;;33.75;59.79;100587.31;5074619;27;69815;-35
2021/06/03 11:09:37;;;;;;;8.48;7.13;;;;;;;33.68;58.23;100589.38;5071170;27;65500;-36
2021/06/03 11:12:08;;;;;;;7.45;6.85;;;;;;;33.53;56.07;100583.69;5075120;27;69063;-36
2021/06/03 11:15:09;;;;;;;7.68;6.97;;;;;;;33.15;54.12;100587.84;5070083;28;65161;-37
2021/06/03 11:17:58;;;;;;;8.55;7.50;;;;;;;33.06;52.27;100611.06;5076483;28;69245;-36
2021/06/03 11:20:41;;;;;;;7.82;6.97;;;;;;;32.54;51.20;100563.00;5065736;27;65385;-34
2021/06/03 11:23:43;;;;;;;16.30;7.07;;;;;;;32.59;50.31;100646.44;5075473;28;69840;-35
2021/06/03 11:26:40;;;;;;;12.32;7.47;;;;;;;32.47;49.46;100666.28;5074788;28;64970;-35
2021/06/03 11:29:27;;;;;;;10.20;7.07;;;;;;;32.36;47.80;100683.34;5063878;28;70612;-35
2021/06/03 11:32:05;;;;;;;7.93;7.18;;;;;;;32.27;47.48;100680.16;5069583;27;65901;-35
2021/06/03 11:34:43;;;;;;;11.52;7.22;;;;;;;32.20;48.00;100675.91;5071051;28;70351;-35
2021/06/03 11:37:45;;;;;;;13.55;7.75;;;;;;;31.54;47.21;100616.19;5078764;27;66091;-34
2021/06/03 11:40:22;;;;;;;20.23;8.20;;;;;;;31.63;47.54;100610.44;5074733;27;69742;-35
2021/06/03 11:42:57;;;;;;;31.67;9.45;;;;;;;31.96;51.38;100673.16;5068959;27;66446;-34
2021/06/03 11:45:41;;;;;;;14.10;9.00;;;;;;;31.94;50.43;100672.56;5071751;27;69233;-34
2021/06/03 11:48:17;;;;;;;33.42;9.35;;;;;;;31.87;50.41;100662.84;5075316;28;66468;-35
2021/06/03 11:50:52;;;;;;;68.57;10.95;;;;;;;31.81;49.75;100667.31;5070325;27;69461;-35
2021/06/03 11:53:27;;;;;;;97.45;11.75;;;;;;;31.38;48.92;100617.66;5066263;28;65997;-36
2021/06/03 11:56:14;;;;;;;74.63;10.98;;;;;;;31.50;47.48;100655.66;5069600;28;70692;-37
2021/06/03 11:58:49;;;;;;;53.33;10.15;;;;;;;31.25;47.41;100617.81;5076452;27;65219;-37